createdAt,value
2019-04-24T00:00:15.455Z,100045.64
2019-04-24T00:07:45.256Z,100041.14
2019-04-24T00:10:22.514Z,100041.19
2019-04-24T00:13:03.165Z,100040.09
2019-04-24T00:25:51.554Z,100027.11
2019-04-24T00:31:12.671Z,100021.56
2019-04-24T00:36:29.381Z,100017.98
2019-04-24T00:38:42.327Z,100016.44
2019-04-24T00:43:55.465Z,100011.59
2019-04-24T00:46:32.901Z,100017.59
2019-04-24T00:48:48.687Z,100003.91
2019-04-24T00:56:31.758Z,100003.00
2019-04-24T00:59:13.750Z,100000.23
2019-04-24T01:01:53.772Z,100002.50
2019-04-24T01:05:12.912Z,99999.66
2019-04-24T01:07:30.559Z,99994.09
2019-04-24T01:10:11.934Z,99993.37
2019-04-24T01:12:39.970Z,99996.27
2019-04-24T01:15:18.465Z,99994.36
2019-04-24T01:17:36.845Z,99994.91
2019-04-24T01:20:24.228Z,99987.67
2019-04-24T01:22:49.977Z,99992.52
2019-04-24T01:27:56.278Z,99988.78
2019-04-24T01:33:08.721Z,99983.19
2019-04-24T01:41:06.989Z,99986.98
2019-04-24T01:43:45.213Z,99984.50
2019-04-24T01:49:00.432Z,99982.66
2019-04-24T01:51:29.760Z,99983.27
2019-04-24T01:54:02.979Z,99981.92
2019-04-24T01:58:55.459Z,99982.10
2019-04-24T02:01:26.658Z,99984.57
2019-04-24T02:06:28.861Z,99979.08
2019-04-24T02:09:07.019Z,99974.07
2019-04-24T02:11:52.952Z,99975.24
2019-04-24T02:14:31.540Z,99971.05
2019-04-24T02:17:00.742Z,99970.87
2019-04-24T02:19:33.205Z,99967.70
2019-04-24T02:22:04.721Z,99966.44
2019-04-24T02:24:35.870Z,99967.92
2019-04-24T02:27:08.646Z,99965.52
2019-04-24T02:29:35.674Z,99968.66
2019-04-24T02:35:19.168Z,99969.70
2019-04-24T02:40:24.129Z,99963.30
2019-04-24T02:43:11.160Z,99964.84
2019-04-24T02:45:45.091Z,99967.38
2019-04-24T02:48:46.284Z,99966.39
2019-04-24T02:50:48.213Z,99954.78
2019-04-24T02:53:20.058Z,99963.30
2019-04-24T02:55:40.564Z,99952.84
2019-04-24T02:58:35.987Z,99954.63
2019-04-24T03:01:03.254Z,99953.58
2019-04-24T03:03:42.560Z,99957.38
2019-04-24T03:11:25.797Z,99959.33
2019-04-24T03:14:00.031Z,99956.51
2019-04-24T03:17:17.444Z,99953.77
2019-04-24T03:33:00.229Z,99958.94
2019-04-24T03:35:14.805Z,99962.66
2019-04-24T03:38:09.523Z,99959.64
2019-04-24T03:40:50.937Z,99954.19
2019-04-24T03:53:28.133Z,99934.63
2019-04-24T03:56:06.278Z,99945.43
2019-04-24T04:04:12.821Z,99932.91
2019-04-24T04:06:51.538Z,99935.94
2019-04-24T04:09:39.656Z,99935.09
2019-04-24T04:14:31.717Z,99926.23
2019-04-24T04:22:07.071Z,99933.63
2019-04-24T04:27:30.229Z,99942.63
2019-04-24T04:29:57.580Z,99951.24
2019-04-24T04:33:14.881Z,99944.30
2019-04-24T04:38:15.027Z,99954.91
2019-04-24T04:43:49.048Z,99954.77
2019-04-24T04:46:31.779Z,99946.23
2019-04-24T04:56:34.161Z,99952.78
2019-04-24T04:59:06.327Z,99944.59
2019-04-24T05:07:22.640Z,99955.31
2019-04-24T05:12:07.527Z,99953.19
2019-04-24T05:25:06.529Z,99951.88
2019-04-24T05:35:38.920Z,99960.82
2019-04-24T05:38:12.483Z,99963.67
2019-04-24T05:43:35.101Z,99963.37
2019-04-24T05:48:38.482Z,99969.42
2019-04-24T05:51:10.988Z,99978.16
2019-04-24T05:54:14.637Z,99969.97
2019-04-24T05:59:17.110Z,99963.34
2019-04-24T06:02:13.652Z,99967.37
2019-04-24T06:04:52.076Z,99971.17
2019-04-24T06:10:25.534Z,99983.34
2019-04-24T06:12:56.814Z,99981.23
2019-04-24T06:21:05.614Z,99972.39
2019-04-24T06:29:19.554Z,99990.27
2019-04-24T06:34:01.834Z,99992.53
2019-04-24T06:37:06.754Z,99992.53
2019-04-24T06:39:38.176Z,99993.72
2019-04-24T06:45:13.471Z,99993.72
2019-04-24T06:47:50.629Z,99989.05
2019-04-24T06:49:56.319Z,99984.06
2019-04-24T06:52:50.163Z,99986.62
2019-04-24T07:03:53.912Z,99989.45
2019-04-24T07:06:13.984Z,99982.86
2019-04-24T07:08:39.394Z,99987.02
2019-04-24T07:11:42.268Z,99975.89
2019-04-24T07:14:28.803Z,99985.92
2019-04-24T07:17:20.047Z,99974.55
2019-04-24T07:19:50.697Z,99984.14
2019-04-24T07:22:19.253Z,99984.14
2019-04-24T07:25:01.120Z,99986.75
2019-04-24T07:27:40.727Z,99991.80
2019-04-24T07:30:17.777Z,99991.80
2019-04-24T07:33:19.056Z,99989.35
2019-04-24T07:38:23.143Z,99993.77
2019-04-24T07:48:50.179Z,99996.05
2019-04-24T08:02:19.307Z,99998.70
2019-04-24T08:04:51.994Z,100008.64
2019-04-24T08:10:45.140Z,100017.17
2019-04-24T08:13:13.440Z,100018.16
2019-04-24T08:18:12.349Z,100018.45
2019-04-24T08:23:29.263Z,100025.39
2019-04-24T08:28:36.366Z,100029.34
2019-04-24T08:32:03.800Z,100035.59
2019-04-24T08:37:10.592Z,100042.42
2019-04-24T08:40:30.129Z,100054.44
2019-04-24T08:43:13.599Z,100040.13
2019-04-24T08:46:08.458Z,100059.98
2019-04-24T08:51:36.448Z,100060.48
2019-04-24T08:54:06.890Z,100054.39
2019-04-24T08:57:06.772Z,100055.33
2019-04-24T09:02:56.438Z,100077.71
2019-04-24T09:05:09.684Z,100073.27
2019-04-24T09:08:05.889Z,100066.88
2019-04-24T09:16:19.074Z,100062.61
2019-04-24T09:21:17.108Z,100076.03
2019-04-24T09:27:00.893Z,100066.20
2019-04-24T09:32:15.602Z,100074.90
2019-04-24T09:34:20.660Z,100065.10
2019-04-24T09:43:02.096Z,100070.33
2019-04-24T09:45:06.808Z,100059.83
2019-04-24T09:50:21.315Z,100054.13
2019-04-24T09:53:12.868Z,100050.95
2019-04-24T09:55:43.538Z,100053.52
2019-04-24T09:58:13.974Z,100044.69
2019-04-24T10:01:15.381Z,100055.67
2019-04-24T10:03:53.375Z,100046.38
2019-04-24T10:06:30.761Z,100048.55
2019-04-24T10:08:45.141Z,100052.45
2019-04-24T10:11:32.735Z,100053.78
2019-04-24T10:14:00.682Z,100055.11
2019-04-24T10:16:45.732Z,100050.32
2019-04-24T10:19:24.466Z,100049.00
2019-04-24T10:21:53.514Z,100059.18
2019-04-24T10:24:25.241Z,100061.84
2019-04-24T10:27:04.945Z,100062.38
2019-04-24T10:29:53.680Z,100066.13
2019-04-24T10:35:45.319Z,100065.66
2019-04-24T10:41:08.935Z,100062.12
2019-04-24T10:43:52.827Z,100067.73
2019-04-24T10:46:56.143Z,100063.89
2019-04-24T10:49:31.127Z,100061.38
2019-04-24T10:57:11.311Z,100063.25
2019-04-24T11:05:53.904Z,100065.77
2019-04-24T11:08:29.210Z,100063.42
2019-04-24T11:14:24.945Z,100064.73
2019-04-24T11:17:23.779Z,100064.81
2019-04-24T11:20:06.137Z,100067.37
2019-04-24T11:23:00.575Z,100068.48
2019-04-24T11:26:01.896Z,100067.59
2019-04-24T11:28:36.827Z,100070.95
2019-04-24T11:31:11.935Z,100063.99
2019-04-24T11:34:03.881Z,100063.42
2019-04-24T11:36:52.656Z,100063.78
2019-04-24T11:39:28.385Z,100060.78
2019-04-24T11:41:54.814Z,100061.96
2019-04-24T11:47:25.778Z,100063.34
2019-04-24T11:49:55.390Z,100063.18
2019-04-24T11:53:03.068Z,100062.91
2019-04-24T11:55:35.246Z,100073.11
2019-04-24T12:00:47.595Z,100060.50
2019-04-24T12:03:48.622Z,100068.38
2019-04-24T12:06:23.872Z,100071.42
2019-04-24T12:08:54.777Z,100063.13
2019-04-24T12:11:36.119Z,100070.56
2019-04-24T12:14:26.992Z,100074.08
2019-04-24T12:17:00.750Z,100065.31
2019-04-24T12:25:01.267Z,100062.74
2019-04-24T12:27:42.797Z,100069.61
2019-04-24T12:30:13.250Z,100066.61
2019-04-24T12:32:55.055Z,100067.97
2019-04-24T12:35:34.628Z,100067.18
2019-04-24T12:38:28.725Z,100068.76
2019-04-24T12:41:07.787Z,100063.09
2019-04-24T12:43:53.874Z,100068.91
2019-04-24T12:46:23.508Z,100060.97
2019-04-24T12:48:55.169Z,100066.23
2019-04-24T12:51:20.025Z,100065.73
2019-04-24T12:54:05.713Z,100062.33
2019-04-24T12:57:07.583Z,100065.05
2019-04-24T12:59:41.302Z,100066.77
2019-04-24T13:02:29.582Z,100063.67
2019-04-24T13:07:50.976Z,100071.72
2019-04-24T13:10:27.906Z,100061.02
2019-04-24T13:15:40.061Z,100069.35
2019-04-24T13:18:11.468Z,100068.42
2019-04-24T13:20:17.518Z,100065.38
2019-04-24T13:22:57.093Z,100070.64
2019-04-24T13:26:00.938Z,100079.12
2019-04-24T13:28:51.509Z,100071.48
2019-04-24T13:31:18.931Z,100077.30
2019-04-24T13:33:40.558Z,100079.84
2019-04-24T13:36:18.326Z,100075.43
2019-04-24T13:38:49.451Z,100081.37
2019-04-24T13:41:45.602Z,100082.49
2019-04-24T13:44:05.941Z,100082.95
2019-04-24T13:46:17.165Z,100079.52
2019-04-24T13:51:24.041Z,100083.20
2019-04-24T13:54:09.307Z,100075.19
2019-04-24T13:56:31.974Z,100078.84
2019-04-24T13:59:05.690Z,100074.13
2019-04-24T14:14:16.411Z,100066.73
2019-04-24T14:16:53.308Z,100074.23
2019-04-24T14:19:51.930Z,100061.81
2019-04-24T14:22:16.683Z,100069.05
2019-04-24T14:24:59.866Z,100066.76
2019-04-24T14:27:39.559Z,100056.00
2019-04-24T14:32:44.580Z,100051.64
2019-04-24T14:37:33.199Z,100065.59
2019-04-24T14:40:16.954Z,100057.81
2019-04-24T14:42:46.634Z,100061.65
2019-04-24T14:45:42.307Z,100061.91
2019-04-24T14:50:26.289Z,100034.80
2019-04-24T14:52:43.642Z,100047.41
2019-04-24T14:55:37.960Z,100043.05
2019-04-24T15:00:32.944Z,100037.91
2019-04-24T15:03:03.668Z,100036.66
2019-04-24T15:08:15.299Z,100034.46
2019-04-24T15:13:21.791Z,100025.97
2019-04-24T15:16:12.142Z,100016.25
2019-04-24T15:18:22.904Z,100021.89
2019-04-24T15:20:56.041Z,100021.59
2019-04-24T15:23:52.165Z,100022.61
2019-04-24T15:26:12.991Z,100019.50
2019-04-24T15:28:46.584Z,100016.05
2019-04-24T15:33:55.732Z,100019.20
2019-04-24T15:36:14.282Z,100017.67
2019-04-24T15:38:49.571Z,100013.15
2019-04-24T15:41:24.019Z,100027.66
2019-04-24T15:43:50.040Z,100023.55
2019-04-24T15:46:15.483Z,100021.70
2019-04-24T15:48:54.817Z,100023.44
2019-04-24T15:51:25.035Z,100017.52
2019-04-24T15:53:32.730Z,100022.33
2019-04-24T15:56:02.947Z,100017.62
2019-04-24T15:58:45.983Z,100016.57
2019-04-24T16:01:30.506Z,100021.14
2019-04-24T16:04:13.691Z,100011.09
2019-04-24T16:06:29.639Z,100013.86
2019-04-24T16:09:02.364Z,100010.00
2019-04-24T16:11:32.600Z,100012.31
2019-04-24T16:14:18.233Z,100005.34
2019-04-24T16:17:05.857Z,100005.38
2019-04-24T16:22:09.700Z,100005.50
2019-04-24T16:27:17.842Z,99996.23
2019-04-24T16:29:56.802Z,99999.57
2019-04-24T16:34:59.831Z,99995.50
2019-04-24T16:37:33.692Z,99988.30
2019-04-24T16:45:20.079Z,99985.98
2019-04-24T16:48:24.201Z,99995.45
2019-04-24T16:53:07.552Z,99992.89
2019-04-24T16:55:27.902Z,99985.39
2019-04-24T17:03:10.513Z,99989.36
2019-04-24T17:08:21.924Z,99987.68
2019-04-24T17:11:00.996Z,99984.52
2019-04-24T17:13:16.489Z,99991.74
2019-04-24T17:15:49.632Z,99991.49
2019-04-24T17:18:38.103Z,99998.39
2019-04-24T17:28:32.931Z,100003.57
2019-04-24T17:33:42.739Z,100005.61
2019-04-24T17:36:11.425Z,100000.50
2019-04-24T17:38:34.085Z,99993.95
2019-04-24T17:41:06.754Z,99988.94
2019-04-24T17:44:15.720Z,99989.14
2019-04-24T17:46:32.408Z,99997.09
2019-04-24T17:49:16.419Z,99995.63
2019-04-24T17:51:44.023Z,99996.48
2019-04-24T17:54:17.752Z,99993.25
2019-04-24T17:56:58.236Z,99995.38
2019-04-24T17:58:53.329Z,99992.59
2019-04-24T18:01:24.330Z,99995.08
2019-04-24T18:03:54.868Z,99998.81
2019-04-24T18:06:29.189Z,100005.77
2019-04-24T18:09:08.278Z,100007.92
2019-04-24T18:11:38.512Z,100006.33
2019-04-24T18:14:11.088Z,100008.27
2019-04-24T18:16:42.429Z,100012.17
2019-04-24T18:19:13.557Z,100014.28
2019-04-24T18:21:44.117Z,100018.39
2019-04-24T18:24:27.156Z,100023.52
2019-04-24T18:27:03.191Z,100020.67
2019-04-24T18:29:32.878Z,100027.66
2019-04-24T18:32:03.898Z,100024.63
2019-04-24T18:34:34.340Z,100028.17
2019-04-24T18:37:05.540Z,100033.11
2019-04-24T18:39:36.112Z,100039.17
2019-04-24T18:42:06.679Z,100049.37
2019-04-24T18:44:37.067Z,100041.62
2019-04-24T18:47:07.423Z,100040.27
2019-04-24T18:49:37.830Z,100046.03
2019-04-24T18:52:08.922Z,100042.00
2019-04-24T18:54:39.720Z,100042.05
2019-04-24T18:57:12.085Z,100042.74
2019-04-24T18:59:43.335Z,100043.58
2019-04-24T19:02:14.106Z,100041.08
2019-04-24T19:04:45.030Z,100046.52
2019-04-24T19:07:19.086Z,100049.56
2019-04-24T19:09:53.330Z,100048.20
2019-04-24T19:12:24.181Z,100054.97
2019-04-24T19:14:55.018Z,100053.28
2019-04-24T19:17:26.481Z,100050.92
2019-04-24T19:20:01.168Z,100052.95
2019-04-24T19:22:32.054Z,100060.39
2019-04-24T19:25:02.773Z,100062.59
2019-04-24T19:27:36.258Z,100057.86
2019-04-24T19:30:08.393Z,100062.59
2019-04-24T19:32:39.877Z,100068.19
2019-04-24T19:35:11.640Z,100069.50
2019-04-24T19:37:42.665Z,100068.81
2019-04-24T19:40:26.798Z,100066.45
2019-04-24T19:42:48.057Z,100076.93
2019-04-24T19:45:18.401Z,100069.84
2019-04-24T19:47:49.306Z,100070.67
2019-04-24T19:50:22.121Z,100076.42
2019-04-24T19:52:54.614Z,100072.19
2019-04-24T19:55:25.011Z,100067.95
2019-04-24T19:57:55.897Z,100074.69
2019-04-24T20:00:26.977Z,100065.06
2019-04-24T20:02:58.535Z,100066.94
2019-04-24T20:05:32.736Z,100072.14
2019-04-24T20:08:03.630Z,100070.13
2019-04-24T20:10:51.235Z,100072.17
2019-04-24T20:13:22.449Z,100072.84
2019-04-24T20:15:53.600Z,100079.22
2019-04-24T20:18:24.442Z,100082.77
2019-04-24T20:20:55.108Z,100085.61
2019-04-24T20:23:34.369Z,100081.39
2019-04-24T20:26:01.260Z,100080.21
2019-04-24T20:28:31.736Z,100078.86
2019-04-24T20:31:03.441Z,100082.91
2019-04-24T20:33:38.327Z,100083.59
2019-04-24T20:36:08.606Z,100072.13
2019-04-24T20:38:39.336Z,100079.03
2019-04-24T20:41:12.069Z,100070.75
2019-04-24T20:43:45.267Z,100067.21
2019-04-24T20:46:19.759Z,100068.39
2019-04-24T20:48:51.343Z,100063.70
2019-04-24T20:51:22.467Z,100053.55
2019-04-24T20:53:53.646Z,100053.89
2019-04-24T20:56:26.344Z,100047.49
2019-04-24T20:58:55.955Z,100048.19
2019-04-24T21:01:28.407Z,100046.84
2019-04-24T21:03:58.980Z,100043.47
2019-04-24T21:06:37.351Z,100046.16
2019-04-24T21:09:32.574Z,100039.75
2019-04-24T21:12:08.508Z,100036.72
2019-04-24T21:14:41.453Z,100034.03
2019-04-24T21:17:13.072Z,100033.72
2019-04-24T21:19:44.629Z,100034.41
2019-04-24T21:22:14.879Z,100028.83
2019-04-24T21:24:45.683Z,100023.95
2019-04-24T21:27:16.574Z,100027.81
2019-04-24T21:29:47.129Z,100025.28
2019-04-24T21:32:17.674Z,100027.66
2019-04-24T21:34:47.984Z,100016.52
2019-04-24T21:37:21.110Z,100016.52
2019-04-24T21:39:53.590Z,100016.20
2019-04-24T21:42:24.612Z,100014.69
2019-04-24T21:44:58.800Z,100018.20
2019-04-24T21:47:29.183Z,100016.52
2019-04-24T21:49:59.557Z,100016.52
2019-04-24T21:52:32.589Z,100015.51
2019-04-24T21:55:03.251Z,100020.89
2019-04-24T21:57:35.728Z,100020.75
2019-04-24T22:00:14.935Z,100011.81
2019-04-24T22:02:49.113Z,100014.66
2019-04-24T22:05:25.531Z,100006.55
2019-04-24T22:08:02.283Z,100000.00
2019-04-24T22:10:33.296Z,100008.74
2019-04-24T22:13:04.143Z,100009.60
2019-04-24T22:15:35.060Z,100011.13
2019-04-24T22:18:12.198Z,100006.39
2019-04-24T22:20:46.622Z,100003.20
2019-04-24T22:23:36.337Z,99993.23
2019-04-24T22:26:08.379Z,99995.75
2019-04-24T22:28:38.741Z,99994.95
2019-04-24T22:31:21.048Z,99993.59
2019-04-24T22:33:56.881Z,99998.31
2019-04-24T22:36:27.471Z,99994.11
2019-04-24T22:39:23.018Z,99986.67
2019-04-24T22:41:53.702Z,99990.89
2019-04-24T22:44:24.008Z,99984.30
2019-04-24T22:46:54.683Z,99981.61
2019-04-24T22:49:26.104Z,99983.12
2019-04-24T22:51:56.743Z,99982.30
2019-04-24T22:54:31.076Z,99980.77
2019-04-24T22:56:59.519Z,99979.09
2019-04-24T22:59:33.252Z,99975.03
2019-04-24T23:02:03.378Z,99975.03
2019-04-24T23:04:34.804Z,99969.49
2019-04-24T23:07:07.123Z,99960.53
2019-04-24T23:09:40.378Z,99953.45
2019-04-24T23:12:11.690Z,99957.69
2019-04-24T23:14:43.150Z,99950.25
2019-04-24T23:17:13.633Z,99943.02
2019-04-24T23:19:43.958Z,99944.02
2019-04-24T23:22:42.203Z,99932.71
2019-04-24T23:25:38.647Z,99925.48
2019-04-24T23:28:14.273Z,99927.67
2019-04-24T23:31:13.226Z,99945.52
2019-04-24T23:33:47.322Z,99946.86
2019-04-24T23:36:18.169Z,99949.73
2019-04-24T23:38:48.555Z,99950.75
2019-04-24T23:41:18.824Z,99955.30
2019-04-24T23:43:49.218Z,99948.05
2019-04-24T23:46:19.813Z,99950.39
2019-04-24T23:48:50.213Z,99945.84
2019-04-24T23:51:20.935Z,99948.70
2019-04-24T23:53:51.583Z,99945.00
2019-04-24T23:56:23.870Z,99966.73
2019-04-24T23:58:54.809Z,99998.06
